sensor_id;sensor_type;location;lat;lon;timestamp;temperature;humidity
6948;DHT22;3513;47.664;9.162;2023-05-10T00:01:37;13.70;99.90
6948;DHT22;3513;47.664;9.162;2023-05-10T00:04:03;13.80;99.90
6948;DHT22;3513;47.664;9.162;2023-05-10T00:06:29;13.70;99.90
6948;DHT22;3513;47.664;9.162;2023-05-10T00:08:55;13.70;99.90
6948;DHT22;3513;47.664;9.162;2023-05-10T00:11:20;13.70;99.90
6948;DHT22;3513;47.664;9.162;2023-05-10T00:13:46;13.70;99.90
6948;DHT22;3513;47.664;9.162;2023-05-10T00:16:12;13.60;99.90
6948;DHT22;3513;47.664;9.162;2023-05-10T00:18:39;13.60;99.90
6948;DHT22;3513;47.664;9.162;2023-05-10T00:21:05;13.60;99.90
6948;DHT22;3513;47.664;9.162;2023-05-10T00:23:31;13.60;99.90
6948;DHT22;3513;47.664;9.162;2023-05-10T00:25:57;13.60;99.90
6948;DHT22;3513;47.664;9.162;2023-05-10T00:28:23;13.50;99.90
6948;DHT22;3513;47.664;9.162;2023-05-10T00:30:48;13.40;99.90
6948;DHT22;3513;47.664;9.162;2023-05-10T00:33:14;13.50;99.90
6948;DHT22;3513;47.664;9.162;2023-05-10T00:35:39;13.50;99.90
6948;DHT22;3513;47.664;9.162;2023-05-10T00:38:05;13.40;99.90
6948;DHT22;3513;47.664;9.162;2023-05-10T00:40:31;13.40;99.90
6948;DHT22;3513;47.664;9.162;2023-05-10T00:42:57;13.40;99.90
6948;DHT22;3513;47.664;9.162;2023-05-10T00:45:24;13.30;99.90
6948;DHT22;3513;47.664;9.162;2023-05-10T00:47:50;13.30;99.90
6948;DHT22;3513;47.664;9.162;2023-05-10T00:50:17;13.30;99.90
6948;DHT22;3513;47.664;9.162;2023-05-10T00:52:43;13.30;99.90
6948;DHT22;3513;47.664;9.162;2023-05-10T00:55:09;13.80;99.90
6948;DHT22;3513;47.664;9.162;2023-05-10T00:57:36;13.30;99.90
6948;DHT22;3513;47.664;9.162;2023-05-10T01:00:02;13.30;99.90
6948;DHT22;3513;47.664;9.162;2023-05-10T01:02:28;13.20;99.90
6948;DHT22;3513;47.664;9.162;2023-05-10T01:04:54;13.30;99.90
6948;DHT22;3513;47.664;9.162;2023-05-10T01:07:20;13.30;99.90
6948;DHT22;3513;47.664;9.162;2023-05-10T01:09:46;13.20;99.90
6948;DHT22;3513;47.664;9.162;2023-05-10T01:12:11;13.30;99.90
6948;DHT22;3513;47.664;9.162;2023-05-10T01:14:37;13.20;99.90
6948;DHT22;3513;47.664;9.162;2023-05-10T01:17:04;13.20;99.90
6948;DHT22;3513;47.664;9.162;2023-05-10T01:19:31;13.20;99.90
6948;DHT22;3513;47.664;9.162;2023-05-10T01:30:36;13.20;99.90
6948;DHT22;3513;47.664;9.162;2023-05-10T01:33:47;13.10;99.90
6948;DHT22;3513;47.664;9.162;2023-05-10T01:36:25;13.10;99.90
6948;DHT22;3513;47.664;9.162;2023-05-10T01:39:10;13.10;99.90
6948;DHT22;3513;47.664;9.162;2023-05-10T01:41:49;13.10;99.90
6948;DHT22;3513;47.664;9.162;2023-05-10T01:44:37;13.10;99.90
6948;DHT22;3513;47.664;9.162;2023-05-10T01:47:17;13.00;99.90
6948;DHT22;3513;47.664;9.162;2023-05-10T01:49:52;13.10;99.90
6948;DHT22;3513;47.664;9.162;2023-05-10T01:52:25;13.00;99.90
6948;DHT22;3513;47.664;9.162;2023-05-10T01:54:56;13.00;99.90
6948;DHT22;3513;47.664;9.162;2023-05-10T01:57:29;13.00;99.90
6948;DHT22;3513;47.664;9.162;2023-05-10T01:59:56;12.80;99.90
6948;DHT22;3513;47.664;9.162;2023-05-10T02:02:23;12.80;99.90
6948;DHT22;3513;47.664;9.162;2023-05-10T02:04:50;12.90;99.90
6948;DHT22;3513;47.664;9.162;2023-05-10T02:07:18;12.90;99.90
6948;DHT22;3513;47.664;9.162;2023-05-10T02:09:45;12.90;99.90
6948;DHT22;3513;47.664;9.162;2023-05-10T02:12:13;12.80;99.90
6948;DHT22;3513;47.664;9.162;2023-05-10T02:14:41;12.90;99.90
6948;DHT22;3513;47.664;9.162;2023-05-10T02:17:07;12.90;99.90
6948;DHT22;3513;47.664;9.162;2023-05-10T02:19:34;12.90;99.90
6948;DHT22;3513;47.664;9.162;2023-05-10T02:22:03;12.80;99.90
6948;DHT22;3513;47.664;9.162;2023-05-10T02:24:29;12.80;99.90
6948;DHT22;3513;47.664;9.162;2023-05-10T02:26:56;12.80;99.90
6948;DHT22;3513;47.664;9.162;2023-05-10T02:29:24;12.70;99.90
6948;DHT22;3513;47.664;9.162;2023-05-10T02:31:55;12.80;99.90
6948;DHT22;3513;47.664;9.162;2023-05-10T02:34:23;12.70;99.90
6948;DHT22;3513;47.664;9.162;2023-05-10T02:36:50;12.80;99.90
6948;DHT22;3513;47.664;9.162;2023-05-10T02:39:19;12.70;99.90
6948;DHT22;3513;47.664;9.162;2023-05-10T02:41:47;12.70;99.90
6948;DHT22;3513;47.664;9.162;2023-05-10T02:44:15;12.80;99.90
6948;DHT22;3513;47.664;9.162;2023-05-10T02:46:41;11.70;99.90
6948;DHT22;3513;47.664;9.162;2023-05-10T02:49:07;12.80;99.90
6948;DHT22;3513;47.664;9.162;2023-05-10T02:51:35;12.80;99.90
6948;DHT22;3513;47.664;9.162;2023-05-10T02:54:12;12.80;99.90
6948;DHT22;3513;47.664;9.162;2023-05-10T02:56:43;12.90;99.90
6948;DHT22;3513;47.664;9.162;2023-05-10T02:59:09;12.90;99.90
6948;DHT22;3513;47.664;9.162;2023-05-10T03:01:35;12.70;99.90
6948;DHT22;3513;47.664;9.162;2023-05-10T03:04:00;12.90;99.90
6948;DHT22;3513;47.664;9.162;2023-05-10T03:06:26;12.80;99.90
6948;DHT22;3513;47.664;9.162;2023-05-10T03:08:52;12.90;99.90
6948;DHT22;3513;47.664;9.162;2023-05-10T03:14:10;12.90;99.90
6948;DHT22;3513;47.664;9.162;2023-05-10T03:16:52;12.90;99.90
6948;DHT22;3513;47.664;9.162;2023-05-10T03:22:06;12.90;99.90
6948;DHT22;3513;47.664;9.162;2023-05-10T03:24:34;12.90;99.90
6948;DHT22;3513;47.664;9.162;2023-05-10T03:27:01;12.90;99.90
6948;DHT22;3513;47.664;9.162;2023-05-10T03:29:29;12.90;99.90
6948;DHT22;3513;47.664;9.162;2023-05-10T03:31:58;12.90;99.90
6948;DHT22;3513;47.664;9.162;2023-05-10T03:34:25;12.90;99.90
6948;DHT22;3513;47.664;9.162;2023-05-10T03:36:50;13.00;99.90
6948;DHT22;3513;47.664;9.162;2023-05-10T03:39:16;13.00;99.90
6948;DHT22;3513;47.664;9.162;2023-05-10T03:41:42;13.00;99.90
6948;DHT22;3513;47.664;9.162;2023-05-10T03:44:07;13.00;99.90
6948;DHT22;3513;47.664;9.162;2023-05-10T03:46:33;13.00;99.90
6948;DHT22;3513;47.664;9.162;2023-05-10T03:48:58;13.00;99.90
6948;DHT22;3513;47.664;9.162;2023-05-10T03:51:24;12.90;99.90
6948;DHT22;3513;47.664;9.162;2023-05-10T03:53:53;12.90;99.90
6948;DHT22;3513;47.664;9.162;2023-05-10T03:56:19;12.90;99.90
6948;DHT22;3513;47.664;9.162;2023-05-10T03:58:46;12.90;99.90
6948;DHT22;3513;47.664;9.162;2023-05-10T04:01:11;12.90;99.90
6948;DHT22;3513;47.664;9.162;2023-05-10T04:03:37;12.80;99.90
6948;DHT22;3513;47.664;9.162;2023-05-10T04:06:03;12.80;99.90
6948;DHT22;3513;47.664;9.162;2023-05-10T04:08:29;12.80;99.90
6948;DHT22;3513;47.664;9.162;2023-05-10T04:11:04;12.80;99.90
6948;DHT22;3513;47.664;9.162;2023-05-10T04:13:30;12.70;99.90
6948;DHT22;3513;47.664;9.162;2023-05-10T04:15:56;12.70;99.90
6948;DHT22;3513;47.664;9.162;2023-05-10T04:18:21;12.70;99.90
6948;DHT22;3513;47.664;9.162;2023-05-10T04:20:47;12.80;99.90
6948;DHT22;3513;47.664;9.162;2023-05-10T04:23:13;12.60;99.90
6948;DHT22;3513;47.664;9.162;2023-05-10T04:25:39;12.70;99.90
6948;DHT22;3513;47.664;9.162;2023-05-10T04:28:05;12.70;99.90
6948;DHT22;3513;47.664;9.162;2023-05-10T04:30:30;12.70;99.90
6948;DHT22;3513;47.664;9.162;2023-05-10T04:32:56;12.60;99.90
6948;DHT22;3513;47.664;9.162;2023-05-10T04:35:21;12.60;99.90
6948;DHT22;3513;47.664;9.162;2023-05-10T04:37:47;12.70;99.90
6948;DHT22;3513;47.664;9.162;2023-05-10T04:40:12;12.60;99.90
6948;DHT22;3513;47.664;9.162;2023-05-10T04:42:40;12.70;99.90
6948;DHT22;3513;47.664;9.162;2023-05-10T04:45:06;12.70;99.90
6948;DHT22;3513;47.664;9.162;2023-05-10T04:47:32;12.70;99.90
6948;DHT22;3513;47.664;9.162;2023-05-10T04:49:58;12.70;99.90
6948;DHT22;3513;47.664;9.162;2023-05-10T04:52:24;12.70;99.90
6948;DHT22;3513;47.664;9.162;2023-05-10T04:54:49;12.70;99.90
6948;DHT22;3513;47.664;9.162;2023-05-10T04:57:16;12.70;99.90
6948;DHT22;3513;47.664;9.162;2023-05-10T04:59:41;12.80;99.90
6948;DHT22;3513;47.664;9.162;2023-05-10T05:02:07;12.80;99.90
6948;DHT22;3513;47.664;9.162;2023-05-10T05:04:33;12.80;99.90
6948;DHT22;3513;47.664;9.162;2023-05-10T05:06:59;13.00;99.90
6948;DHT22;3513;47.664;9.162;2023-05-10T05:09:24;13.00;99.90
6948;DHT22;3513;47.664;9.162;2023-05-10T05:11:50;13.20;99.90
6948;DHT22;3513;47.664;9.162;2023-05-10T05:14:15;13.20;99.90
6948;DHT22;3513;47.664;9.162;2023-05-10T05:16:41;13.10;99.90
6948;DHT22;3513;47.664;9.162;2023-05-10T05:19:07;13.00;99.90
6948;DHT22;3513;47.664;9.162;2023-05-10T05:21:32;12.90;99.90
6948;DHT22;3513;47.664;9.162;2023-05-10T05:23:58;12.90;99.90
6948;DHT22;3513;47.664;9.162;2023-05-10T05:26:23;12.90;99.90
6948;DHT22;3513;47.664;9.162;2023-05-10T05:28:49;12.90;99.90
6948;DHT22;3513;47.664;9.162;2023-05-10T05:31:17;12.90;99.90
6948;DHT22;3513;47.664;9.162;2023-05-10T05:33:43;12.90;99.90
6948;DHT22;3513;47.664;9.162;2023-05-10T05:36:09;12.90;99.90
6948;DHT22;3513;47.664;9.162;2023-05-10T05:38:34;13.00;99.90
6948;DHT22;3513;47.664;9.162;2023-05-10T05:41:00;13.00;99.90
6948;DHT22;3513;47.664;9.162;2023-05-10T05:43:26;13.10;99.90
6948;DHT22;3513;47.664;9.162;2023-05-10T05:45:54;13.10;99.90
6948;DHT22;3513;47.664;9.162;2023-05-10T05:48:20;13.10;99.90
6948;DHT22;3513;47.664;9.162;2023-05-10T05:50:46;13.20;99.90
6948;DHT22;3513;47.664;9.162;2023-05-10T05:53:12;13.10;99.90
6948;DHT22;3513;47.664;9.162;2023-05-10T05:55:37;13.10;99.90
6948;DHT22;3513;47.664;9.162;2023-05-10T05:58:03;13.10;99.90
6948;DHT22;3513;47.664;9.162;2023-05-10T06:00:28;13.20;99.90
6948;DHT22;3513;47.664;9.162;2023-05-10T06:02:54;13.00;99.90
6948;DHT22;3513;47.664;9.162;2023-05-10T06:05:19;13.10;99.90
6948;DHT22;3513;47.664;9.162;2023-05-10T06:07:46;13.00;99.90
6948;DHT22;3513;47.664;9.162;2023-05-10T06:10:11;13.00;99.90
6948;DHT22;3513;47.664;9.162;2023-05-10T06:12:37;13.00;99.90
6948;DHT22;3513;47.664;9.162;2023-05-10T06:15:03;13.00;99.90
6948;DHT22;3513;47.664;9.162;2023-05-10T06:17:29;13.00;99.90
6948;DHT22;3513;47.664;9.162;2023-05-10T06:19:55;13.00;99.90
6948;DHT22;3513;47.664;9.162;2023-05-10T06:22:21;13.00;99.90
6948;DHT22;3513;47.664;9.162;2023-05-10T06:24:48;13.00;99.90
6948;DHT22;3513;47.664;9.162;2023-05-10T06:27:14;13.00;99.90
6948;DHT22;3513;47.664;9.162;2023-05-10T06:29:39;12.90;99.90
6948;DHT22;3513;47.664;9.162;2023-05-10T06:32:05;13.00;99.90
6948;DHT22;3513;47.664;9.162;2023-05-10T06:34:31;13.00;99.90
6948;DHT22;3513;47.664;9.162;2023-05-10T06:36:57;13.00;99.90
6948;DHT22;3513;47.664;9.162;2023-05-10T06:39:22;13.00;99.90
6948;DHT22;3513;47.664;9.162;2023-05-10T06:41:48;13.10;99.90
6948;DHT22;3513;47.664;9.162;2023-05-10T06:44:13;13.10;99.90
6948;DHT22;3513;47.664;9.162;2023-05-10T06:46:39;13.20;99.90
6948;DHT22;3513;47.664;9.162;2023-05-10T06:49:04;13.30;99.90
6948;DHT22;3513;47.664;9.162;2023-05-10T06:51:30;13.20;99.90
6948;DHT22;3513;47.664;9.162;2023-05-10T06:53:56;13.40;99.90
6948;DHT22;3513;47.664;9.162;2023-05-10T06:56:21;13.40;99.90
6948;DHT22;3513;47.664;9.162;2023-05-10T06:58:48;13.50;99.90
6948;DHT22;3513;47.664;9.162;2023-05-10T07:01:13;13.50;99.90
6948;DHT22;3513;47.664;9.162;2023-05-10T07:03:39;13.50;99.90
6948;DHT22;3513;47.664;9.162;2023-05-10T07:06:05;13.50;99.90
6948;DHT22;3513;47.664;9.162;2023-05-10T07:08:32;13.60;99.90
6948;DHT22;3513;47.664;9.162;2023-05-10T07:11:05;13.60;99.90
6948;DHT22;3513;47.664;9.162;2023-05-10T07:13:33;13.70;99.90
6948;DHT22;3513;47.664;9.162;2023-05-10T07:15:59;13.80;99.90
6948;DHT22;3513;47.664;9.162;2023-05-10T07:18:26;13.90;99.90
6948;DHT22;3513;47.664;9.162;2023-05-10T07:20:52;13.90;99.90
6948;DHT22;3513;47.664;9.162;2023-05-10T07:23:18;14.00;99.90
6948;DHT22;3513;47.664;9.162;2023-05-10T07:25:48;13.90;99.90
6948;DHT22;3513;47.664;9.162;2023-05-10T07:28:14;13.90;99.90
6948;DHT22;3513;47.664;9.162;2023-05-10T07:30:40;13.90;99.90
6948;DHT22;3513;47.664;9.162;2023-05-10T07:33:06;13.80;99.90
6948;DHT22;3513;47.664;9.162;2023-05-10T07:35:33;13.80;99.90
6948;DHT22;3513;47.664;9.162;2023-05-10T07:37:59;13.80;99.90
6948;DHT22;3513;47.664;9.162;2023-05-10T07:40:25;13.90;99.90
6948;DHT22;3513;47.664;9.162;2023-05-10T07:42:51;14.00;99.90
6948;DHT22;3513;47.664;9.162;2023-05-10T07:45:17;14.10;99.90
6948;DHT22;3513;47.664;9.162;2023-05-10T07:47:43;14.20;99.90
6948;DHT22;3513;47.664;9.162;2023-05-10T07:50:08;14.20;99.90
6948;DHT22;3513;47.664;9.162;2023-05-10T07:52:34;14.20;99.90
6948;DHT22;3513;47.664;9.162;2023-05-10T07:54:59;14.30;99.90
6948;DHT22;3513;47.664;9.162;2023-05-10T07:57:25;14.40;99.80
6948;DHT22;3513;47.664;9.162;2023-05-10T07:59:51;14.30;99.90
6948;DHT22;3513;47.664;9.162;2023-05-10T08:02:16;14.40;99.40
6948;DHT22;3513;47.664;9.162;2023-05-10T08:04:42;14.40;98.80
6948;DHT22;3513;47.664;9.162;2023-05-10T08:07:07;14.30;99.20
6948;DHT22;3513;47.664;9.162;2023-05-10T08:09:33;14.30;99.70
6948;DHT22;3513;47.664;9.162;2023-05-10T08:11:58;14.40;99.90
6948;DHT22;3513;47.664;9.162;2023-05-10T08:14:25;14.40;98.80
6948;DHT22;3513;47.664;9.162;2023-05-10T08:16:51;14.40;98.70
6948;DHT22;3513;47.664;9.162;2023-05-10T08:19:17;14.40;98.80
6948;DHT22;3513;47.664;9.162;2023-05-10T08:21:46;14.30;99.10
6948;DHT22;3513;47.664;9.162;2023-05-10T08:24:12;14.30;99.90
6948;DHT22;3513;47.664;9.162;2023-05-10T08:26:38;14.20;99.90
6948;DHT22;3513;47.664;9.162;2023-05-10T08:29:03;14.20;99.90
6948;DHT22;3513;47.664;9.162;2023-05-10T08:31:29;14.20;99.90
6948;DHT22;3513;47.664;9.162;2023-05-10T08:33:54;14.10;99.90
6948;DHT22;3513;47.664;9.162;2023-05-10T08:36:20;14.00;99.90
6948;DHT22;3513;47.664;9.162;2023-05-10T08:38:49;14.00;99.90
6948;DHT22;3513;47.664;9.162;2023-05-10T08:41:15;13.90;99.90
6948;DHT22;3513;47.664;9.162;2023-05-10T08:43:42;14.10;99.90
6948;DHT22;3513;47.664;9.162;2023-05-10T08:46:15;14.10;99.90
6948;DHT22;3513;47.664;9.162;2023-05-10T08:48:42;14.00;99.90
6948;DHT22;3513;47.664;9.162;2023-05-10T08:51:09;14.10;99.90
6948;DHT22;3513;47.664;9.162;2023-05-10T08:53:36;14.10;99.90
6948;DHT22;3513;47.664;9.162;2023-05-10T08:56:03;14.20;99.90
6948;DHT22;3513;47.664;9.162;2023-05-10T08:58:29;14.30;99.90
6948;DHT22;3513;47.664;9.162;2023-05-10T09:00:56;14.40;99.90
6948;DHT22;3513;47.664;9.162;2023-05-10T09:03:22;14.40;99.90
6948;DHT22;3513;47.664;9.162;2023-05-10T09:05:50;14.50;99.90
6948;DHT22;3513;47.664;9.162;2023-05-10T09:08:17;14.60;99.90
6948;DHT22;3513;47.664;9.162;2023-05-10T09:10:44;14.70;99.90
6948;DHT22;3513;47.664;9.162;2023-05-10T09:13:13;14.70;99.90
6948;DHT22;3513;47.664;9.162;2023-05-10T09:15:39;14.70;99.70
6948;DHT22;3513;47.664;9.162;2023-05-10T09:18:05;14.70;99.90
6948;DHT22;3513;47.664;9.162;2023-05-10T09:20:30;14.80;99.90
6948;DHT22;3513;47.664;9.162;2023-05-10T09:22:56;14.80;99.80
6948;DHT22;3513;47.664;9.162;2023-05-10T09:25:22;14.90;99.60
6948;DHT22;3513;47.664;9.162;2023-05-10T09:27:48;15.00;98.30
6948;DHT22;3513;47.664;9.162;2023-05-10T09:30:28;15.10;99.20
6948;DHT22;3513;47.664;9.162;2023-05-10T09:32:54;15.20;98.90
6948;DHT22;3513;47.664;9.162;2023-05-10T09:35:23;15.30;98.70
6948;DHT22;3513;47.664;9.162;2023-05-10T09:37:53;15.30;97.90
6948;DHT22;3513;47.664;9.162;2023-05-10T09:40:24;15.30;97.30
6948;DHT22;3513;47.664;9.162;2023-05-10T09:43:01;15.20;96.30
6948;DHT22;3513;47.664;9.162;2023-05-10T09:45:28;15.30;95.70
6948;DHT22;3513;47.664;9.162;2023-05-10T09:47:55;15.30;96.40
6948;DHT22;3513;47.664;9.162;2023-05-10T09:50:21;15.40;96.20
6948;DHT22;3513;47.664;9.162;2023-05-10T09:52:52;15.40;95.40
6948;DHT22;3513;47.664;9.162;2023-05-10T09:55:21;15.40;94.90
6948;DHT22;3513;47.664;9.162;2023-05-10T09:57:47;15.50;94.60
6948;DHT22;3513;47.664;9.162;2023-05-10T10:00:22;15.60;94.10
6948;DHT22;3513;47.664;9.162;2023-05-10T10:02:54;15.50;92.60
6948;DHT22;3513;47.664;9.162;2023-05-10T10:05:20;15.40;93.00
6948;DHT22;3513;47.664;9.162;2023-05-10T10:07:46;15.50;93.50
6948;DHT22;3513;47.664;9.162;2023-05-10T10:10:12;15.60;93.20
6948;DHT22;3513;47.664;9.162;2023-05-10T10:12:39;15.60;91.30
6948;DHT22;3513;47.664;9.162;2023-05-10T10:15:07;15.70;92.00
6948;DHT22;3513;47.664;9.162;2023-05-10T10:17:35;15.60;91.10
6948;DHT22;3513;47.664;9.162;2023-05-10T10:20:02;15.60;91.40
6948;DHT22;3513;47.664;9.162;2023-05-10T10:22:28;15.70;90.50
6948;DHT22;3513;47.664;9.162;2023-05-10T10:24:54;15.70;90.50
6948;DHT22;3513;47.664;9.162;2023-05-10T10:27:24;15.70;90.00
6948;DHT22;3513;47.664;9.162;2023-05-10T10:35:10;15.90;90.50
6948;DHT22;3513;47.664;9.162;2023-05-10T10:37:46;16.00;90.40
6948;DHT22;3513;47.664;9.162;2023-05-10T10:40:32;16.10;90.80
6948;DHT22;3513;47.664;9.162;2023-05-10T10:43:22;16.30;89.00
6948;DHT22;3513;47.664;9.162;2023-05-10T10:46:15;16.30;87.70
6948;DHT22;3513;47.664;9.162;2023-05-10T10:48:48;16.30;85.60
6948;DHT22;3513;47.664;9.162;2023-05-10T10:51:14;16.20;83.50
6948;DHT22;3513;47.664;9.162;2023-05-10T10:53:40;16.10;84.50
6948;DHT22;3513;47.664;9.162;2023-05-10T10:56:11;15.90;84.40
6948;DHT22;3513;47.664;9.162;2023-05-10T10:58:39;16.00;84.70
6948;DHT22;3513;47.664;9.162;2023-05-10T11:01:13;15.90;85.70
6948;DHT22;3513;47.664;9.162;2023-05-10T11:03:39;16.00;86.00
6948;DHT22;3513;47.664;9.162;2023-05-10T11:06:05;16.00;85.70
6948;DHT22;3513;47.664;9.162;2023-05-10T11:08:32;16.10;85.30
6948;DHT22;3513;47.664;9.162;2023-05-10T11:11:02;16.20;86.20
6948;DHT22;3513;47.664;9.162;2023-05-10T11:13:32;16.30;84.60
6948;DHT22;3513;47.664;9.162;2023-05-10T11:15:59;16.40;85.50
6948;DHT22;3513;47.664;9.162;2023-05-10T11:18:36;16.40;84.00
6948;DHT22;3513;47.664;9.162;2023-05-10T11:21:02;16.30;83.40
6948;DHT22;3513;47.664;9.162;2023-05-10T11:23:48;16.20;85.90
6948;DHT22;3513;47.664;9.162;2023-05-10T11:26:14;16.20;83.90
6948;DHT22;3513;47.664;9.162;2023-05-10T11:28:47;16.20;82.20
6948;DHT22;3513;47.664;9.162;2023-05-10T11:31:17;16.10;84.00
6948;DHT22;3513;47.664;9.162;2023-05-10T11:33:51;16.00;84.50
6948;DHT22;3513;47.664;9.162;2023-05-10T11:36:19;16.00;84.00
6948;DHT22;3513;47.664;9.162;2023-05-10T11:38:46;15.80;82.10
6948;DHT22;3513;47.664;9.162;2023-05-10T11:41:12;15.80;83.80
6948;DHT22;3513;47.664;9.162;2023-05-10T11:43:41;15.80;83.50
6948;DHT22;3513;47.664;9.162;2023-05-10T11:46:09;15.80;82.80
6948;DHT22;3513;47.664;9.162;2023-05-10T11:48:35;15.80;83.80
6948;DHT22;3513;47.664;9.162;2023-05-10T11:51:01;15.90;84.90
6948;DHT22;3513;47.664;9.162;2023-05-10T11:53:30;15.90;83.30
6948;DHT22;3513;47.664;9.162;2023-05-10T11:56:02;16.00;84.70
6948;DHT22;3513;47.664;9.162;2023-05-10T11:58:28;16.00;82.00
6948;DHT22;3513;47.664;9.162;2023-05-10T12:00:54;16.10;81.30
6948;DHT22;3513;47.664;9.162;2023-05-10T12:03:19;16.00;80.20
6948;DHT22;3513;47.664;9.162;2023-05-10T12:05:45;15.90;81.60
6948;DHT22;3513;47.664;9.162;2023-05-10T12:08:15;15.90;84.40
6948;DHT22;3513;47.664;9.162;2023-05-10T12:10:41;16.00;83.10
6948;DHT22;3513;47.664;9.162;2023-05-10T12:13:11;16.10;83.00
6948;DHT22;3513;47.664;9.162;2023-05-10T12:15:38;16.20;82.60
6948;DHT22;3513;47.664;9.162;2023-05-10T12:18:03;16.30;82.10
6948;DHT22;3513;47.664;9.162;2023-05-10T12:20:30;16.40;81.30
6948;DHT22;3513;47.664;9.162;2023-05-10T12:22:57;16.50;82.70
6948;DHT22;3513;47.664;9.162;2023-05-10T12:25:24;16.50;80.90
6948;DHT22;3513;47.664;9.162;2023-05-10T12:27:56;16.50;76.60
6948;DHT22;3513;47.664;9.162;2023-05-10T12:30:27;16.50;76.70
6948;DHT22;3513;47.664;9.162;2023-05-10T12:32:54;16.50;76.60
6948;DHT22;3513;47.664;9.162;2023-05-10T12:35:24;16.50;71.40
6948;DHT22;3513;47.664;9.162;2023-05-10T12:37:53;16.60;70.20
6948;DHT22;3513;47.664;9.162;2023-05-10T12:40:18;16.60;69.40
6948;DHT22;3513;47.664;9.162;2023-05-10T12:42:44;16.50;67.30
6948;DHT22;3513;47.664;9.162;2023-05-10T12:45:14;16.50;67.60
6948;DHT22;3513;47.664;9.162;2023-05-10T12:47:39;16.60;69.30
6948;DHT22;3513;47.664;9.162;2023-05-10T12:50:05;16.60;71.20
6948;DHT22;3513;47.664;9.162;2023-05-10T12:52:31;16.70;71.50
6948;DHT22;3513;47.664;9.162;2023-05-10T12:55:00;16.70;70.20
6948;DHT22;3513;47.664;9.162;2023-05-10T12:57:26;16.80;68.80
6948;DHT22;3513;47.664;9.162;2023-05-10T12:59:53;16.90;70.70
6948;DHT22;3513;47.664;9.162;2023-05-10T13:02:18;17.00;70.10
6948;DHT22;3513;47.664;9.162;2023-05-10T13:04:45;17.10;71.30
6948;DHT22;3513;47.664;9.162;2023-05-10T13:07:11;17.10;68.30
6948;DHT22;3513;47.664;9.162;2023-05-10T13:09:37;17.20;69.40
6948;DHT22;3513;47.664;9.162;2023-05-10T13:12:03;17.20;67.90
6948;DHT22;3513;47.664;9.162;2023-05-10T13:14:29;17.10;67.80
6948;DHT22;3513;47.664;9.162;2023-05-10T13:16:55;17.00;67.30
6948;DHT22;3513;47.664;9.162;2023-05-10T13:19:20;17.00;66.90
6948;DHT22;3513;47.664;9.162;2023-05-10T13:21:46;17.00;67.10
6948;DHT22;3513;47.664;9.162;2023-05-10T13:24:12;17.10;67.90
6948;DHT22;3513;47.664;9.162;2023-05-10T13:26:42;17.10;69.30
6948;DHT22;3513;47.664;9.162;2023-05-10T13:29:08;17.10;67.20
6948;DHT22;3513;47.664;9.162;2023-05-10T13:31:34;17.10;68.50
6948;DHT22;3513;47.664;9.162;2023-05-10T13:34:00;17.10;67.10
6948;DHT22;3513;47.664;9.162;2023-05-10T13:36:26;17.20;68.50
6948;DHT22;3513;47.664;9.162;2023-05-10T13:38:51;17.30;69.90
6948;DHT22;3513;47.664;9.162;2023-05-10T13:41:17;17.20;67.20
6948;DHT22;3513;47.664;9.162;2023-05-10T13:43:43;17.20;68.50
6948;DHT22;3513;47.664;9.162;2023-05-10T13:46:08;17.30;66.80
6948;DHT22;3513;47.664;9.162;2023-05-10T13:48:34;17.30;68.60
6948;DHT22;3513;47.664;9.162;2023-05-10T13:50:59;17.40;66.90
6948;DHT22;3513;47.664;9.162;2023-05-10T13:53:25;17.40;63.70
6948;DHT22;3513;47.664;9.162;2023-05-10T13:55:50;17.40;64.10
6948;DHT22;3513;47.664;9.162;2023-05-10T13:58:16;17.40;62.60
6948;DHT22;3513;47.664;9.162;2023-05-10T14:00:42;17.40;64.10
6948;DHT22;3513;47.664;9.162;2023-05-10T14:03:07;17.30;62.90
6948;DHT22;3513;47.664;9.162;2023-05-10T14:05:36;17.30;63.00
6948;DHT22;3513;47.664;9.162;2023-05-10T14:08:01;17.30;63.50
6948;DHT22;3513;47.664;9.162;2023-05-10T14:10:27;17.30;64.20
6948;DHT22;3513;47.664;9.162;2023-05-10T14:12:52;17.40;63.70
6948;DHT22;3513;47.664;9.162;2023-05-10T14:15:18;17.30;64.50
6948;DHT22;3513;47.664;9.162;2023-05-10T14:17:43;17.20;65.20
6948;DHT22;3513;47.664;9.162;2023-05-10T14:20:09;17.20;64.20
6948;DHT22;3513;47.664;9.162;2023-05-10T14:22:35;17.10;65.80
6948;DHT22;3513;47.664;9.162;2023-05-10T14:25:01;17.20;66.60
6948;DHT22;3513;47.664;9.162;2023-05-10T14:27:27;17.20;67.80
6948;DHT22;3513;47.664;9.162;2023-05-10T14:29:52;17.10;66.30
6948;DHT22;3513;47.664;9.162;2023-05-10T14:32:19;17.10;66.40
6948;DHT22;3513;47.664;9.162;2023-05-10T14:34:44;17.10;66.70
6948;DHT22;3513;47.664;9.162;2023-05-10T14:37:11;17.00;67.80
6948;DHT22;3513;47.664;9.162;2023-05-10T14:39:37;16.90;66.30
6948;DHT22;3513;47.664;9.162;2023-05-10T14:42:03;16.80;67.60
6948;DHT22;3513;47.664;9.162;2023-05-10T14:44:28;16.90;68.20
6948;DHT22;3513;47.664;9.162;2023-05-10T14:46:54;17.00;68.00
6948;DHT22;3513;47.664;9.162;2023-05-10T14:49:20;16.90;65.80
6948;DHT22;3513;47.664;9.162;2023-05-10T14:51:48;16.90;65.40
6948;DHT22;3513;47.664;9.162;2023-05-10T14:54:13;16.80;65.60
6948;DHT22;3513;47.664;9.162;2023-05-10T14:56:39;16.70;66.40
6948;DHT22;3513;47.664;9.162;2023-05-10T14:59:06;16.60;67.90
6948;DHT22;3513;47.664;9.162;2023-05-10T15:01:32;16.60;66.10
6948;DHT22;3513;47.664;9.162;2023-05-10T15:03:58;16.50;67.60
6948;DHT22;3513;47.664;9.162;2023-05-10T15:06:30;16.50;68.00
6948;DHT22;3513;47.664;9.162;2023-05-10T15:08:57;16.60;68.00
6948;DHT22;3513;47.664;9.162;2023-05-10T15:11:22;16.60;67.00
6948;DHT22;3513;47.664;9.162;2023-05-10T15:13:48;16.60;68.20
6948;DHT22;3513;47.664;9.162;2023-05-10T15:16:13;16.50;67.60
6948;DHT22;3513;47.664;9.162;2023-05-10T15:18:39;16.50;66.60
6948;DHT22;3513;47.664;9.162;2023-05-10T15:21:04;16.30;68.50
6948;DHT22;3513;47.664;9.162;2023-05-10T15:23:30;16.30;69.30
6948;DHT22;3513;47.664;9.162;2023-05-10T15:25:55;16.30;69.70
6948;DHT22;3513;47.664;9.162;2023-05-10T15:28:21;16.40;69.50
6948;DHT22;3513;47.664;9.162;2023-05-10T15:30:47;16.50;71.60
6948;DHT22;3513;47.664;9.162;2023-05-10T15:33:13;16.60;71.70
6948;DHT22;3513;47.664;9.162;2023-05-10T15:35:39;16.60;72.30
6948;DHT22;3513;47.664;9.162;2023-05-10T15:38:05;16.50;73.90
6948;DHT22;3513;47.664;9.162;2023-05-10T15:40:31;16.50;75.40
6948;DHT22;3513;47.664;9.162;2023-05-10T15:42:56;16.50;75.00
6948;DHT22;3513;47.664;9.162;2023-05-10T15:45:22;16.50;75.80
6948;DHT22;3513;47.664;9.162;2023-05-10T15:47:48;16.50;75.40
6948;DHT22;3513;47.664;9.162;2023-05-10T15:50:14;16.50;76.70
6948;DHT22;3513;47.664;9.162;2023-05-10T15:52:40;16.50;77.10
6948;DHT22;3513;47.664;9.162;2023-05-10T15:55:07;16.20;80.20
6948;DHT22;3513;47.664;9.162;2023-05-10T15:57:43;16.50;82.50
6948;DHT22;3513;47.664;9.162;2023-05-10T16:00:09;16.40;84.40
6948;DHT22;3513;47.664;9.162;2023-05-10T16:02:35;16.40;83.40
6948;DHT22;3513;47.664;9.162;2023-05-10T16:05:01;16.30;85.30
6948;DHT22;3513;47.664;9.162;2023-05-10T16:07:27;16.40;85.30
6948;DHT22;3513;47.664;9.162;2023-05-10T16:09:53;16.40;85.50
6948;DHT22;3513;47.664;9.162;2023-05-10T16:12:19;16.30;85.90
6948;DHT22;3513;47.664;9.162;2023-05-10T16:14:45;16.30;85.80
6948;DHT22;3513;47.664;9.162;2023-05-10T16:17:11;16.30;86.50
6948;DHT22;3513;47.664;9.162;2023-05-10T16:19:36;16.30;85.60
6948;DHT22;3513;47.664;9.162;2023-05-10T16:22:02;16.20;87.20